sensor_id;sensor_type;location;lat;lon;timestamp;pressure;altitude;pressure_sealevel;temperature;humidity
5814;BME280;2933;52.302;8.134;2023-04-01T00:00:09;98284.44;;;8.63;100.00
5814;BME280;2933;52.302;8.134;2023-04-01T00:05:12;98288.28;;;8.59;100.00
5814;BME280;2933;52.302;8.134;2023-04-01T00:10:14;98286.09;;;8.64;100.00
5814;BME280;2933;52.302;8.134;2023-04-01T00:15:16;98288.72;;;8.64;100.00
5814;BME280;2933;52.302;8.134;2023-04-01T00:20:18;98280.19;;;8.62;100.00
5814;BME280;2933;52.302;8.134;2023-04-01T00:25:21;98282.81;;;8.62;100.00
5814;BME280;2933;52.302;8.134;2023-04-01T00:30:23;98274.03;;;8.63;100.00
5814;BME280;2933;52.302;8.134;2023-04-01T00:35:26;98277.44;;;8.64;100.00
5814;BME280;2933;52.302;8.134;2023-04-01T00:40:29;98274.59;;;8.57;100.00
5814;BME280;2933;52.302;8.134;2023-04-01T00:45:34;98264.44;;;8.54;100.00
5814;BME280;2933;52.302;8.134;2023-04-01T00:50:38;98270.06;;;8.59;100.00
5814;BME280;2933;52.302;8.134;2023-04-01T00:55:45;98272.69;;;8.59;100.00
5814;BME280;2933;52.302;8.134;2023-04-01T01:00:51;98274.59;;;8.57;100.00
5814;BME280;2933;52.302;8.134;2023-04-01T01:06:04;98263.19;;;8.48;100.00
5814;BME280;2933;52.302;8.134;2023-04-01T01:11:10;98254.41;;;8.39;100.00
5814;BME280;2933;52.302;8.134;2023-04-01T01:16:18;98268.78;;;8.44;100.00
5814;BME280;2933;52.302;8.134;2023-04-01T01:21:47;98262.44;;;8.36;100.00
5814;BME280;2933;52.302;8.134;2023-04-01T01:26:59;98258.00;;;8.48;100.00
5814;BME280;2933;52.302;8.134;2023-04-01T01:32:10;98264.25;;;8.46;100.00
5814;BME280;2933;52.302;8.134;2023-04-01T01:37:19;98268.56;;;8.47;100.00
5814;BME280;2933;52.302;8.134;2023-04-01T01:42:24;98264.16;;;8.47;100.00
5814;BME280;2933;52.302;8.134;2023-04-01T01:47:27;98268.25;;;8.50;100.00
5814;BME280;2933;52.302;8.134;2023-04-01T01:52:31;98261.81;;;8.44;100.00
5814;BME280;2933;52.302;8.134;2023-04-01T01:57:34;98264.97;;;8.48;100.00
5814;BME280;2933;52.302;8.134;2023-04-01T02:02:37;98263.34;;;8.47;100.00
5814;BME280;2933;52.302;8.134;2023-04-01T02:07:43;98263.84;;;8.40;100.00
5814;BME280;2933;52.302;8.134;2023-04-01T02:12:48;98264.63;;;8.31;100.00
5814;BME280;2933;52.302;8.134;2023-04-01T02:17:51;98254.78;;;8.35;100.00
5814;BME280;2933;52.302;8.134;2023-04-01T02:22:56;98259.19;;;8.34;100.00
5814;BME280;2933;52.302;8.134;2023-04-01T02:28:00;98257.53;;;8.33;100.00
5814;BME280;2933;52.302;8.134;2023-04-01T02:33:03;98260.00;;;8.35;100.00
5814;BME280;2933;52.302;8.134;2023-04-01T02:38:06;98252.47;;;8.32;100.00
5814;BME280;2933;52.302;8.134;2023-04-01T02:43:08;98240.41;;;8.21;100.00
5814;BME280;2933;52.302;8.134;2023-04-01T02:48:09;98265.63;;;8.40;100.00
5814;BME280;2933;52.302;8.134;2023-04-01T02:53:12;98272.31;;;8.43;100.00
5814;BME280;2933;52.302;8.134;2023-04-01T02:58:14;98266.00;;;8.35;100.00
5814;BME280;2933;52.302;8.134;2023-04-01T03:03:15;98275.47;;;8.36;100.00
5814;BME280;2933;52.302;8.134;2023-04-01T03:08:18;98272.44;;;8.31;100.00
5814;BME280;2933;52.302;8.134;2023-04-01T03:13:20;98276.16;;;8.38;100.00
5814;BME280;2933;52.302;8.134;2023-04-01T03:18:21;98241.63;;;8.17;100.00
5814;BME280;2933;52.302;8.134;2023-04-01T03:23:24;98275.19;;;8.30;100.00
5814;BME280;2933;52.302;8.134;2023-04-01T03:28:26;98259.16;;;8.24;100.00
5814;BME280;2933;52.302;8.134;2023-04-01T03:33:27;98264.91;;;8.28;100.00
5814;BME280;2933;52.302;8.134;2023-04-01T03:38:30;98276.84;;;8.31;100.00
5814;BME280;2933;52.302;8.134;2023-04-01T03:43:32;98276.28;;;8.27;100.00
5814;BME280;2933;52.302;8.134;2023-04-01T03:48:34;98271.63;;;8.31;100.00
5814;BME280;2933;52.302;8.134;2023-04-01T03:53:37;98278.59;;;8.30;100.00
5814;BME280;2933;52.302;8.134;2023-04-01T03:58:38;98278.59;;;8.30;100.00
5814;BME280;2933;52.302;8.134;2023-04-01T04:03:40;98282.44;;;8.26;100.00
5814;BME280;2933;52.302;8.134;2023-04-01T04:08:43;98279.03;;;8.25;100.00
5814;BME280;2933;52.302;8.134;2023-04-01T04:13:45;98269.97;;;8.20;100.00
5814;BME280;2933;52.302;8.134;2023-04-01T04:18:47;98267.72;;;8.05;100.00
5814;BME280;2933;52.302;8.134;2023-04-01T04:23:50;98278.13;;;8.05;100.00
5814;BME280;2933;52.302;8.134;2023-04-01T04:28:53;98281.41;;;8.07;100.00
5814;BME280;2933;52.302;8.134;2023-04-01T04:33:55;98262.09;;;8.00;100.00
5814;BME280;2933;52.302;8.134;2023-04-01T04:38:58;98282.94;;;8.10;100.00
5814;BME280;2933;52.302;8.134;2023-04-01T04:44:02;98281.00;;;8.02;100.00
5814;BME280;2933;52.302;8.134;2023-04-01T04:49:03;98294.31;;;8.19;100.00
5814;BME280;2933;52.302;8.134;2023-04-01T04:54:07;98290.63;;;8.21;100.00
5814;BME280;2933;52.302;8.134;2023-04-01T04:59:08;98297.63;;;8.21;100.00
5814;BME280;2933;52.302;8.134;2023-04-01T05:04:11;98300.47;;;8.18;100.00
5814;BME280;2933;52.302;8.134;2023-04-01T05:09:14;98296.88;;;8.09;100.00
5814;BME280;2933;52.302;8.134;2023-04-01T05:14:16;98302.50;;;8.04;100.00
5814;BME280;2933;52.302;8.134;2023-04-01T05:19:17;98281.75;;;7.93;100.00
5814;BME280;2933;52.302;8.134;2023-04-01T05:24:20;98317.84;;;8.17;100.00
5814;BME280;2933;52.302;8.134;2023-04-01T05:29:22;98318.09;;;8.14;100.00
5814;BME280;2933;52.302;8.134;2023-04-01T05:34:23;98325.91;;;8.14;100.00
5814;BME280;2933;52.302;8.134;2023-04-01T05:39:26;98327.28;;;8.08;100.00
5814;BME280;2933;52.302;8.134;2023-04-01T05:44:28;98329.44;;;8.03;100.00
5814;BME280;2933;52.302;8.134;2023-04-01T05:49:30;98322.22;;;8.07;100.00
5814;BME280;2933;52.302;8.134;2023-04-01T05:54:33;98302.59;;;8.03;100.00
5814;BME280;2933;52.302;8.134;2023-04-01T05:59:35;98309.22;;;8.07;100.00
5814;BME280;2933;52.302;8.134;2023-04-01T06:04:38;98339.22;;;8.21;100.00
5814;BME280;2933;52.302;8.134;2023-04-01T06:09:42;98344.00;;;8.16;100.00
5814;BME280;2933;52.302;8.134;2023-04-01T06:14:51;98352.00;;;8.34;100.00
5814;BME280;2933;52.302;8.134;2023-04-01T06:20:03;98355.56;;;8.33;100.00
5814;BME280;2933;52.302;8.134;2023-04-01T06:25:23;98357.47;;;8.31;100.00
5814;BME280;2933;52.302;8.134;2023-04-01T06:30:38;98362.41;;;8.34;100.00
5814;BME280;2933;52.302;8.134;2023-04-01T06:35:52;98368.31;;;8.36;100.00
5814;BME280;2933;52.302;8.134;2023-04-01T06:41:25;98370.09;;;8.45;100.00
5814;BME280;2933;52.302;8.134;2023-04-01T06:46:41;98378.06;;;8.44;100.00
5814;BME280;2933;52.302;8.134;2023-04-01T06:51:52;98380.97;;;8.50;100.00
5814;BME280;2933;52.302;8.134;2023-04-01T06:57:02;98386.38;;;8.37;100.00
5814;BME280;2933;52.302;8.134;2023-04-01T07:02:18;98395.84;;;8.38;100.00
5814;BME280;2933;52.302;8.134;2023-04-01T07:07:30;98403.56;;;8.50;100.00
5814;BME280;2933;52.302;8.134;2023-04-01T07:12:41;98391.50;;;8.49;100.00
5814;BME280;2933;52.302;8.134;2023-04-01T07:17:47;98383.78;;;8.37;100.00
5814;BME280;2933;52.302;8.134;2023-04-01T07:22:51;98384.88;;;8.35;100.00
5814;BME280;2933;52.302;8.134;2023-04-01T07:27:59;98420.31;;;8.57;100.00
5814;BME280;2933;52.302;8.134;2023-04-01T07:33:05;98415.25;;;8.55;100.00
5814;BME280;2933;52.302;8.134;2023-04-01T07:38:17;98436.06;;;8.55;100.00
5814;BME280;2933;52.302;8.134;2023-04-01T07:43:43;98437.59;;;8.58;100.00
5814;BME280;2933;52.302;8.134;2023-04-01T07:48:52;98440.91;;;8.70;100.00
5814;BME280;2933;52.302;8.134;2023-04-01T07:54:02;98447.00;;;8.80;100.00
5814;BME280;2933;52.302;8.134;2023-04-01T07:59:14;98451.09;;;8.83;100.00
5814;BME280;2933;52.302;8.134;2023-04-01T08:04:27;98457.41;;;8.90;100.00
5814;BME280;2933;52.302;8.134;2023-04-01T08:09:43;98444.78;;;8.76;100.00
5814;BME280;2933;52.302;8.134;2023-04-01T08:14:54;98474.25;;;8.86;100.00
5814;BME280;2933;52.302;8.134;2023-04-01T08:20:08;98482.78;;;8.88;100.00
5814;BME280;2933;52.302;8.134;2023-04-01T08:25:19;98484.44;;;8.99;100.00
5814;BME280;2933;52.302;8.134;2023-04-01T08:30:25;98477.03;;;8.94;100.00
5814;BME280;2933;52.302;8.134;2023-04-01T08:35:30;98495.84;;;9.08;100.00
5814;BME280;2933;52.302;8.134;2023-04-01T08:40:52;98496.91;;;9.05;100.00
5814;BME280;2933;52.302;8.134;2023-04-01T08:46:07;98484.59;;;9.07;100.00
5814;BME280;2933;52.302;8.134;2023-04-01T08:51:43;98500.00;;;9.20;100.00
5814;BME280;2933;52.302;8.134;2023-04-01T08:56:54;98515.25;;;9.44;100.00
5814;BME280;2933;52.302;8.134;2023-04-01T09:07:41;98522.38;;;9.42;100.00
5814;BME280;2933;52.302;8.134;2023-04-01T09:13:06;98526.06;;;9.40;100.00
5814;BME280;2933;52.302;8.134;2023-04-01T09:24:21;98534.34;;;9.54;100.00
5814;BME280;2933;52.302;8.134;2023-04-01T09:29:41;98545.31;;;9.58;100.00
5814;BME280;2933;52.302;8.134;2023-04-01T09:34:53;98551.34;;;9.49;100.00
5814;BME280;2933;52.302;8.134;2023-04-01T09:40:09;98560.09;;;9.38;100.00
5814;BME280;2933;52.302;8.134;2023-04-01T09:50:48;98566.72;;;9.62;100.00
5814;BME280;2933;52.302;8.134;2023-04-01T09:56:18;98574.13;;;9.47;100.00
5814;BME280;2933;52.302;8.134;2023-04-01T10:01:50;98575.94;;;9.66;100.00
5814;BME280;2933;52.302;8.134;2023-04-01T10:12:53;98584.16;;;9.61;100.00
5814;BME280;2933;52.302;8.134;2023-04-01T10:18:18;98584.03;;;9.63;100.00
5814;BME280;2933;52.302;8.134;2023-04-01T10:23:40;98580.19;;;9.77;100.00
5814;BME280;2933;52.302;8.134;2023-04-01T10:29:03;98583.09;;;10.13;100.00
5814;BME280;2933;52.302;8.134;2023-04-01T10:34:41;98593.53;;;10.03;100.00
5814;BME280;2933;52.302;8.134;2023-04-01T10:56:51;98601.53;;;10.50;100.00
5814;BME280;2933;52.302;8.134;2023-04-01T11:02:32;98602.47;;;10.20;100.00
5814;BME280;2933;52.302;8.134;2023-04-01T11:08:11;98622.25;;;10.13;100.00
5814;BME280;2933;52.302;8.134;2023-04-01T11:13:44;98619.63;;;10.03;100.00
5814;BME280;2933;52.302;8.134;2023-04-01T11:30:32;98643.34;;;9.80;100.00
5814;BME280;2933;52.302;8.134;2023-04-01T11:35:52;98640.28;;;9.65;100.00
5814;BME280;2933;52.302;8.134;2023-04-01T11:41:00;98644.72;;;9.84;100.00
5814;BME280;2933;52.302;8.134;2023-04-01T11:46:16;98638.47;;;10.16;100.00
5814;BME280;2933;52.302;8.134;2023-04-01T11:51:32;98657.88;;;10.53;100.00
5814;BME280;2933;52.302;8.134;2023-04-01T11:56:48;98621.97;;;10.35;100.00
5814;BME280;2933;52.302;8.134;2023-04-01T12:01:59;98673.41;;;10.45;100.00
5814;BME280;2933;52.302;8.134;2023-04-01T12:07:13;98677.91;;;10.72;100.00
5814;BME280;2933;52.302;8.134;2023-04-01T12:12:22;98675.97;;;10.84;100.00
5814;BME280;2933;52.302;8.134;2023-04-01T12:17:36;98685.19;;;10.49;100.00
5814;BME280;2933;52.302;8.134;2023-04-01T12:22:49;98692.59;;;10.34;100.00
5814;BME280;2933;52.302;8.134;2023-04-01T12:28:09;98699.72;;;10.22;100.00
5814;BME280;2933;52.302;8.134;2023-04-01T12:38:55;98708.88;;;10.07;100.00
5814;BME280;2933;52.302;8.134;2023-04-01T12:44:26;98723.69;;;9.96;100.00
5814;BME280;2933;52.302;8.134;2023-04-01T12:49:55;98730.50;;;9.78;100.00
5814;BME280;2933;52.302;8.134;2023-04-01T13:00:45;98752.63;;;9.83;100.00
5814;BME280;2933;52.302;8.134;2023-04-01T13:11:31;98763.72;;;9.85;100.00
5814;BME280;2933;52.302;8.134;2023-04-01T13:16:38;98778.19;;;9.99;100.00
5814;BME280;2933;52.302;8.134;2023-04-01T13:21:51;98775.22;;;10.14;100.00
5814;BME280;2933;52.302;8.134;2023-04-01T13:26:59;98776.06;;;10.24;100.00
5814;BME280;2933;52.302;8.134;2023-04-01T13:32:13;98787.34;;;10.15;100.00
5814;BME280;2933;52.302;8.134;2023-04-01T13:37:31;98777.13;;;10.02;100.00
5814;BME280;2933;52.302;8.134;2023-04-01T13:42:42;98806.78;;;10.01;100.00
5814;BME280;2933;52.302;8.134;2023-04-01T13:48:17;98803.56;;;10.18;100.00
5814;BME280;2933;52.302;8.134;2023-04-01T13:54:06;98802.34;;;10.32;100.00
5814;BME280;2933;52.302;8.134;2023-04-01T14:04:53;98803.88;;;10.35;100.00
5814;BME280;2933;52.302;8.134;2023-04-01T14:10:22;98818.38;;;10.18;100.00
5814;BME280;2933;52.302;8.134;2023-04-01T14:15:42;98813.09;;;9.98;100.00
5814;BME280;2933;52.302;8.134;2023-04-01T14:20:51;98842.91;;;10.06;100.00
5814;BME280;2933;52.302;8.134;2023-04-01T14:26:16;98856.72;;;9.96;100.00
5814;BME280;2933;52.302;8.134;2023-04-01T14:31:57;98856.31;;;9.91;100.00
5814;BME280;2933;52.302;8.134;2023-04-01T14:37:46;98821.78;;;9.78;100.00
5814;BME280;2933;52.302;8.134;2023-04-01T14:43:09;98877.47;;;9.77;100.00
5814;BME280;2933;52.302;8.134;2023-04-01T14:48:21;98881.38;;;9.82;100.00
5814;BME280;2933;52.302;8.134;2023-04-01T14:53:28;98870.44;;;9.67;100.00
5814;BME280;2933;52.302;8.134;2023-04-01T14:58:42;98884.63;;;9.75;100.00
5814;BME280;2933;52.302;8.134;2023-04-01T15:03:49;98891.22;;;9.79;100.00
5814;BME280;2933;52.302;8.134;2023-04-01T15:09:03;98855.97;;;9.63;100.00
5814;BME280;2933;52.302;8.134;2023-04-01T15:14:26;98910.06;;;9.82;100.00
5814;BME280;2933;52.302;8.134;2023-04-01T15:19:41;98921.88;;;9.65;100.00
5814;BME280;2933;52.302;8.134;2023-04-01T15:24:48;98954.88;;;9.23;100.00
5814;BME280;2933;52.302;8.134;2023-04-01T15:30:31;98956.72;;;9.32;100.00
5814;BME280;2933;52.302;8.134;2023-04-01T15:35:40;98966.25;;;9.10;100.00
5814;BME280;2933;52.302;8.134;2023-04-01T15:40:47;98976.94;;;8.84;100.00
5814;BME280;2933;52.302;8.134;2023-04-01T15:45:58;98997.31;;;8.91;100.00
5814;BME280;2933;52.302;8.134;2023-04-01T15:51:23;98994.13;;;8.64;100.00
5814;BME280;2933;52.302;8.134;2023-04-01T15:56:45;99012.19;;;8.54;100.00
5814;BME280;2933;52.302;8.134;2023-04-01T16:01:58;99016.16;;;8.36;100.00
5814;BME280;2933;52.302;8.134;2023-04-01T16:07:10;99012.81;;;8.22;100.00
5814;BME280;2933;52.302;8.134;2023-04-01T16:12:30;99053.03;;;8.18;100.00
5814;BME280;2933;52.302;8.134;2023-04-01T16:17:52;99047.66;;;8.08;100.00
5814;BME280;2933;52.302;8.134;2023-04-01T16:23:00;99043.78;;;7.79;100.00
5814;BME280;2933;52.302;8.134;2023-04-01T16:28:15;99079.53;;;7.99;100.00
5814;BME280;2933;52.302;8.134;2023-04-01T16:33:27;99040.09;;;7.57;100.00
5814;BME280;2933;52.302;8.134;2023-04-01T16:38:37;99093.81;;;7.93;100.00
5814;BME280;2933;52.302;8.134;2023-04-01T16:43:42;99111.78;;;7.72;100.00
5814;BME280;2933;52.302;8.134;2023-04-01T16:48:58;99105.47;;;7.64;100.00
5814;BME280;2933;52.302;8.134;2023-04-01T16:54:05;99132.84;;;7.56;100.00
5814;BME280;2933;52.302;8.134;2023-04-01T16:59:14;99154.16;;;7.49;100.00
5814;BME280;2933;52.302;8.134;2023-04-01T17:04:26;99126.13;;;7.28;100.00
5814;BME280;2933;52.302;8.134;2023-04-01T17:09:44;99151.38;;;7.39;100.00
5814;BME280;2933;52.302;8.134;2023-04-01T17:14:54;99178.19;;;7.52;100.00
5814;BME280;2933;52.302;8.134;2023-04-01T17:20:29;99194.38;;;7.43;100.00
5814;BME280;2933;52.302;8.134;2023-04-01T17:25:44;99209.16;;;7.17;100.00
5814;BME280;2933;52.302;8.134;2023-04-01T17:30:55;99214.75;;;6.98;100.00
5814;BME280;2933;52.302;8.134;2023-04-01T17:36:08;99229.28;;;7.00;100.00
5814;BME280;2933;52.302;8.134;2023-04-01T17:41:19;99254.00;;;6.93;100.00
5814;BME280;2933;52.302;8.134;2023-04-01T17:46:34;99256.66;;;6.78;100.00
5814;BME280;2933;52.302;8.134;2023-04-01T17:51:45;99275.25;;;6.85;100.00
5814;BME280;2933;52.302;8.134;2023-04-01T17:57:02;99285.41;;;6.75;100.00
5814;BME280;2933;52.302;8.134;2023-04-01T18:02:20;99307.19;;;6.73;100.00
5814;BME280;2933;52.302;8.134;2023-04-01T18:07:39;99290.09;;;6.56;100.00
5814;BME280;2933;52.302;8.134;2023-04-01T18:18:35;99334.84;;;6.59;100.00
5814;BME280;2933;52.302;8.134;2023-04-01T18:23:44;99332.59;;;6.40;100.00
5814;BME280;2933;52.302;8.134;2023-04-01T18:28:50;99334.97;;;6.29;100.00
5814;BME280;2933;52.302;8.134;2023-04-01T18:33:59;99344.91;;;6.22;100.00
5814;BME280;2933;52.302;8.134;2023-04-01T18:39:10;99405.13;;;6.27;100.00
5814;BME280;2933;52.302;8.134;2023-04-01T18:44:26;99402.34;;;6.30;100.00
5814;BME280;2933;52.302;8.134;2023-04-01T18:49:38;99398.09;;;6.01;100.00
5814;BME280;2933;52.302;8.134;2023-04-01T18:54:47;99438.38;;;6.21;100.00
5814;BME280;2933;52.302;8.134;2023-04-01T18:59:55;99445.59;;;6.16;100.00
5814;BME280;2933;52.302;8.134;2023-04-01T19:05:02;99463.03;;;5.97;100.00
5814;BME280;2933;52.302;8.134;2023-04-01T19:10:17;99427.78;;;5.64;100.00
5814;BME280;2933;52.302;8.134;2023-04-01T19:15:27;99462.41;;;5.78;100.00
5814;BME280;2933;52.302;8.134;2023-04-01T19:20:36;99506.22;;;5.82;100.00
5814;BME280;2933;52.302;8.134;2023-04-01T19:25:43;99475.59;;;5.59;100.00
5814;BME280;2933;52.302;8.134;2023-04-01T19:30:53;99494.06;;;5.53;100.00
5814;BME280;2933;52.302;8.134;2023-04-01T19:36:02;99509.03;;;5.63;100.00
5814;BME280;2933;52.302;8.134;2023-04-01T19:41:21;99542.72;;;5.63;100.00
5814;BME280;2933;52.302;8.134;2023-04-01T19:46:28;99549.03;;;5.74;100.00
5814;BME280;2933;52.302;8.134;2023-04-01T19:51:35;99568.09;;;5.73;100.00
5814;BME280;2933;52.302;8.134;2023-04-01T19:56:44;99565.78;;;5.52;100.00
5814;BME280;2933;52.302;8.134;2023-04-01T20:01:53;99586.09;;;5.44;100.00
5814;BME280;2933;52.302;8.134;2023-04-01T20:07:04;99592.69;;;5.33;100.00
5814;BME280;2933;52.302;8.134;2023-04-01T20:12:18;99610.69;;;5.19;100.00
5814;BME280;2933;52.302;8.134;2023-04-01T20:17:30;99626.91;;;5.23;100.00
5814;BME280;2933;52.302;8.134;2023-04-01T20:22:49;99635.91;;;5.15;100.00
5814;BME280;2933;52.302;8.134;2023-04-01T20:28:02;99649.53;;;5.19;100.00
5814;BME280;2933;52.302;8.134;2023-04-01T20:33:20;99626.41;;;4.98;100.00
5814;BME280;2933;52.302;8.134;2023-04-01T20:44:11;99691.91;;;5.00;100.00
5814;BME280;2933;52.302;8.134;2023-04-01T20:49:23;99696.63;;;4.92;100.00
5814;BME280;2933;52.302;8.134;2023-04-01T20:54:41;99698.97;;;4.97;100.00
5814;BME280;2933;52.302;8.134;2023-04-01T21:00:11;99678.81;;;4.68;100.00
5814;BME280;2933;52.302;8.134;2023-04-01T21:05:31;99729.91;;;4.82;100.00
5814;BME280;2933;52.302;8.134;2023-04-01T21:10:40;99746.09;;;4.86;100.00
5814;BME280;2933;52.302;8.134;2023-04-01T21:15:53;99739.09;;;4.71;100.00
5814;BME280;2933;52.302;8.134;2023-04-01T21:21:11;99754.91;;;4.64;100.00
5814;BME280;2933;52.302;8.134;2023-04-01T21:26:32;99746.28;;;4.46;100.00
5814;BME280;2933;52.302;8.134;2023-04-01T21:31:51;99783.75;;;4.57;100.00
5814;BME280;2933;52.302;8.134;2023-04-01T21:37:07;99791.41;;;4.58;100.00
5814;BME280;2933;52.302;8.134;2023-04-01T21:42:27;99800.72;;;4.43;100.00
5814;BME280;2933;52.302;8.134;2023-04-01T21:53:22;99799.75;;;4.08;100.00
5814;BME280;2933;52.302;8.134;2023-04-01T21:58:58;99840.28;;;4.26;100.00
5814;BME280;2933;52.302;8.134;2023-04-01T22:04:24;99848.53;;;4.34;100.00
5814;BME280;2933;52.302;8.134;2023-04-01T22:09:37;99873.53;;;4.15;100.00
5814;BME280;2933;52.302;8.134;2023-04-01T22:14:47;99867.94;;;4.05;100.00
5814;BME280;2933;52.302;8.134;2023-04-01T22:19:59;99877.44;;;4.04;100.00
5814;BME280;2933;52.302;8.134;2023-04-01T22:25:14;99887.00;;;4.02;100.00
5814;BME280;2933;52.302;8.134;2023-04-01T22:30:20;99910.91;;;4.08;100.00
5814;BME280;2933;52.302;8.134;2023-04-01T22:35:31;99912.53;;;3.90;100.00
5814;BME280;2933;52.302;8.134;2023-04-01T22:40:43;99921.59;;;3.79;100.00
5814;BME280;2933;52.302;8.134;2023-04-01T22:45:59;99941.28;;;4.02;100.00
5814;BME280;2933;52.302;8.134;2023-04-01T22:51:13;99948.19;;;3.81;100.00
5814;BME280;2933;52.302;8.134;2023-04-01T22:56:20;99949.72;;;3.65;100.00
5814;BME280;2933;52.302;8.134;2023-04-01T23:01:25;99955.63;;;3.68;100.00
5814;BME280;2933;52.302;8.134;2023-04-01T23:06:35;99976.94;;;3.74;100.00
5814;BME280;2933;52.302;8.134;2023-04-01T23:11:44;99983.72;;;3.76;100.00
5814;BME280;2933;52.302;8.134;2023-04-01T23:16:51;99984.78;;;3.70;100.00
5814;BME280;2933;52.302;8.134;2023-04-01T23:22:05;100009.78;;;3.70;100.00
5814;BME280;2933;52.302;8.134;2023-04-01T23:27:12;100028.44;;;3.56;100.00
5814;BME280;2933;52.302;8.134;2023-04-01T23:32:18;100030.13;;;3.57;100.00
5814;BME280;2933;52.302;8.134;2023-04-01T23:37:24;100043.44;;;3.46;100.00
5814;BME280;2933;52.302;8.134;2023-04-01T23:42:28;100055.91;;;3.35;100.00
5814;BME280;2933;52.302;8.134;2023-04-01T23:47:31;100057.09;;;3.26;100.00
5814;BME280;2933;52.302;8.134;2023-04-01T23:52:38;100081.31;;;3.23;100.00
5814;BME280;2933;52.302;8.134;2023-04-01T23:57:42;100088.16;;;3.25;100.00
